Time;durP1;ratioP1;P1;durP2;ratioP2;P2;SDS_P1;SDS_P2;PMS_P1;PMS_P2;Temp;Humidity;BMP_temperature;BMP_pressure;BME280_temperature;BME280_humidity;BME280_pressure;Samples;Min_cycle;Max_cycle;Signal;HPM_P1;HPM_P2
2024/04/05 00:01:42;;;;;;;0.20;0.20;;;;;;;10.95;100.00;98979.97;5026613;28;20116;-57
2024/04/05 00:04:09;;;;;;;0.20;0.20;;;;;;;10.98;100.00;98974.94;5036572;28;20045;-57
2024/04/05 00:06:35;;;;;;;0.20;0.20;;;;;;;11.10;100.00;98973.97;5036076;28;20045;-57
2024/04/05 00:09:03;;;;;;;0.20;0.20;;;;;;;11.15;100.00;98976.69;5036206;28;20068;-57
2024/04/05 00:11:31;;;;;;;0.20;0.20;;;;;;;11.18;100.00;98970.81;5038443;28;20045;-57
2024/04/05 00:13:58;;;;;;;0.22;0.22;;;;;;;11.23;100.00;98973.56;5041765;28;20033;-57
2024/04/05 00:16:24;;;;;;;0.13;0.13;;;;;;;11.21;100.00;98973.84;5042712;28;20047;-57
2024/04/05 00:18:51;;;;;;;0.20;0.20;;;;;;;11.20;100.00;98974.88;5040574;28;20056;-58
2024/04/05 00:21:17;;;;;;;0.20;0.20;;;;;;;11.33;100.00;98972.84;5042194;28;20776;-57
2024/04/05 00:23:45;;;;;;;0.20;0.20;;;;;;;11.18;100.00;98978.88;5039810;28;20037;-58
2024/04/05 00:26:11;;;;;;;0.10;0.10;;;;;;;11.20;100.00;98976.75;5042485;28;20576;-57
2024/04/05 00:28:40;;;;;;;0.10;0.10;;;;;;;11.18;100.00;98968.16;5037057;28;20503;-58
2024/04/05 00:31:08;;;;;;;0.20;0.20;;;;;;;11.19;100.00;98965.22;5043849;28;20045;-57
2024/04/05 00:33:35;;;;;;;0.20;0.20;;;;;;;11.17;100.00;98961.16;5033078;28;20048;-58
2024/04/05 00:36:02;;;;;;;0.10;0.10;;;;;;;11.08;100.00;98965.34;5037874;28;20140;-58
2024/04/05 00:38:29;;;;;;;0.20;0.20;;;;;;;11.21;100.00;98962.28;5039123;28;20056;-57
2024/04/05 00:40:55;;;;;;;0.20;0.20;;;;;;;11.00;100.00;98962.06;5037531;28;20128;-57
2024/04/05 00:43:22;;;;;;;0.20;0.20;;;;;;;10.90;100.00;98964.63;5039610;28;20045;-58
2024/04/05 00:45:50;;;;;;;0.20;0.20;;;;;;;11.01;100.00;98954.84;5036843;28;20133;-57
2024/04/05 00:48:18;;;;;;;0.25;0.25;;;;;;;10.98;100.00;98964.19;5041535;28;20500;-57
2024/04/05 00:50:44;;;;;;;0.20;0.20;;;;;;;10.99;100.00;98960.44;5034518;28;20068;-58
2024/04/05 00:53:13;;;;;;;0.20;0.20;;;;;;;10.98;100.00;98961.53;5033385;28;20325;-57
2024/04/05 00:55:40;;;;;;;0.20;0.20;;;;;;;11.05;100.00;98958.63;5036429;28;20078;-58
2024/04/05 00:58:07;;;;;;;0.20;0.20;;;;;;;11.02;100.00;98961.81;5038441;28;20044;-57
2024/04/05 01:00:33;;;;;;;0.20;0.20;;;;;;;11.07;100.00;98971.78;5040874;28;20049;-57
2024/04/05 01:03:01;;;;;;;0.20;0.20;;;;;;;11.17;100.00;98961.97;5035804;28;20597;-57
2024/04/05 01:05:27;;;;;;;0.10;0.10;;;;;;;11.16;100.00;98957.69;5039804;28;20049;-57
2024/04/05 01:07:54;;;;;;;0.20;0.20;;;;;;;11.18;100.00;98962.78;5038594;28;20606;-58
2024/04/05 01:10:20;;;;;;;0.20;0.20;;;;;;;11.25;100.00;98965.28;5037594;28;20144;-57
2024/04/05 01:12:58;;;;;;;0.20;0.20;;;;;;;11.24;100.00;98961.78;5039545;28;20571;-57
2024/04/05 01:15:24;;;;;;;0.20;0.20;;;;;;;11.31;100.00;98959.72;5039947;28;20633;-57
2024/04/05 01:17:51;;;;;;;0.20;0.20;;;;;;;11.29;100.00;98959.16;5036541;28;20044;-57
2024/04/05 01:20:19;;;;;;;0.20;0.20;;;;;;;11.31;100.00;98957.03;5036961;28;20077;-58
2024/04/05 01:22:48;;;;;;;0.20;0.20;;;;;;;11.32;100.00;98953.28;5036040;28;20161;-57
2024/04/05 01:25:15;;;;;;;0.20;0.20;;;;;;;11.28;100.00;98954.84;5041814;28;20565;-59
2024/04/05 01:27:44;;;;;;;0.20;0.20;;;;;;;11.23;100.00;98955.63;5054874;28;20587;-57
2024/04/05 01:30:10;;;;;;;0.10;0.10;;;;;;;11.19;100.00;98956.38;5035125;28;20052;-58
2024/04/05 01:32:37;;;;;;;0.10;0.10;;;;;;;11.22;100.00;98945.13;5031660;28;20412;-57
2024/04/05 01:35:04;;;;;;;0.20;0.20;;;;;;;11.18;100.00;98947.53;5041555;28;20545;-58
2024/04/05 01:37:31;;;;;;;0.20;0.20;;;;;;;11.09;100.00;98946.34;5039394;28;20045;-58
2024/04/05 01:39:57;;;;;;;0.20;0.20;;;;;;;11.12;100.00;98948.50;5038511;28;20045;-58
2024/04/05 01:42:25;;;;;;;0.20;0.20;;;;;;;11.18;100.00;98952.06;5055287;28;20052;-58
2024/04/05 01:44:51;;;;;;;0.20;0.20;;;;;;;11.10;100.00;98958.69;5041247;28;20052;-58
2024/04/05 01:47:18;;;;;;;0.20;0.20;;;;;;;11.22;100.00;98958.53;5039018;28;20587;-57
2024/04/05 01:49:45;;;;;;;0.22;0.22;;;;;;;11.31;100.00;98959.72;5035322;28;20127;-58
2024/04/05 01:52:11;;;;;;;0.10;0.10;;;;;;;11.28;100.00;98960.19;5039889;28;20471;-58
2024/04/05 01:54:37;;;;;;;0.10;0.10;;;;;;;11.42;100.00;98956.03;5029473;28;20157;-57
2024/04/05 01:57:05;;;;;;;0.30;0.30;;;;;;;11.36;100.00;98957.06;5038412;28;20419;-57
2024/04/05 01:59:32;;;;;;;0.20;0.20;;;;;;;11.36;100.00;98959.75;5033403;28;20041;-57
2024/04/05 02:01:59;;;;;;;0.20;0.20;;;;;;;11.34;100.00;98964.56;5038376;28;20424;-57
2024/04/05 02:04:25;;;;;;;0.20;0.20;;;;;;;11.36;100.00;98958.97;5032041;28;20135;-57
2024/04/05 02:06:52;;;;;;;0.10;0.10;;;;;;;11.37;100.00;98966.72;5034492;28;20409;-57
2024/04/05 02:09:18;;;;;;;0.17;0.17;;;;;;;11.41;100.00;98972.41;5036586;28;20143;-57
2024/04/05 02:11:45;;;;;;;0.20;0.20;;;;;;;11.44;100.00;98961.97;5035104;28;20561;-57
2024/04/05 02:14:11;;;;;;;0.20;0.20;;;;;;;11.42;100.00;98974.84;5039222;28;20049;-57
2024/04/05 02:16:40;;;;;;;0.20;0.20;;;;;;;11.50;100.00;98962.81;5036071;28;20045;-57
2024/04/05 02:19:06;;;;;;;0.20;0.20;;;;;;;11.53;100.00;98970.38;5036945;28;20163;-59
2024/04/05 02:21:33;;;;;;;0.10;0.10;;;;;;;11.55;100.00;98951.31;5038895;28;20067;-57
2024/04/05 02:23:59;;;;;;;0.20;0.20;;;;;;;11.69;100.00;98955.22;5040282;28;20044;-57
2024/04/05 02:26:26;;;;;;;0.20;0.20;;;;;;;11.65;100.00;98954.09;5040540;28;20052;-57
2024/04/05 02:28:52;;;;;;;0.20;0.20;;;;;;;11.60;100.00;98954.06;5038967;28;20129;-57
2024/04/05 02:31:19;;;;;;;0.20;0.20;;;;;;;11.62;100.00;98963.47;5037392;28;20053;-57
2024/04/05 02:33:46;;;;;;;0.15;0.15;;;;;;;11.69;100.00;98967.84;5037167;28;20048;-57
2024/04/05 02:36:13;;;;;;;0.20;0.20;;;;;;;11.75;100.00;98972.16;5037224;28;20041;-57
2024/04/05 02:38:39;;;;;;;0.17;0.17;;;;;;;11.68;100.00;98972.38;5039762;28;20056;-57
2024/04/05 02:41:07;;;;;;;0.10;0.10;;;;;;;11.65;100.00;98962.16;5038051;28;20090;-57
2024/04/05 02:43:33;;;;;;;0.10;0.10;;;;;;;11.60;100.00;98964.78;5039014;28;20057;-57
2024/04/05 02:46:00;;;;;;;0.10;0.10;;;;;;;11.52;100.00;98963.38;5037834;28;20140;-57
2024/04/05 02:48:26;;;;;;;0.10;0.10;;;;;;;11.52;100.00;98959.91;5042030;28;20142;-57
2024/04/05 02:50:55;;;;;;;0.13;0.13;;;;;;;11.54;100.00;98957.78;5035832;28;20045;-57
2024/04/05 02:53:21;;;;;;;0.20;0.20;;;;;;;11.57;100.00;98959.94;5033309;28;20068;-57
2024/04/05 02:55:48;;;;;;;0.10;0.10;;;;;;;11.60;100.00;98954.84;5036282;28;20629;-57
2024/04/05 02:58:14;;;;;;;0.20;0.20;;;;;;;11.58;100.00;98956.19;5033181;28;20122;-58
2024/04/05 03:00:42;;;;;;;0.20;0.20;;;;;;;11.49;100.00;98958.53;5030456;28;20499;-57
2024/04/05 03:03:08;;;;;;;0.20;0.20;;;;;;;11.49;100.00;98957.72;5030859;28;20132;-57
2024/04/05 03:05:35;;;;;;;0.10;0.10;;;;;;;11.50;100.00;98972.75;5036464;28;20052;-57
2024/04/05 03:08:03;;;;;;;0.20;0.20;;;;;;;11.68;100.00;98976.94;5039595;28;20514;-58
2024/04/05 03:10:31;;;;;;;0.20;0.20;;;;;;;11.55;100.00;98984.34;5034132;28;20045;-57
2024/04/05 03:12:57;;;;;;;0.13;0.13;;;;;;;11.63;100.00;98981.22;5033887;28;20055;-57
2024/04/05 03:15:24;;;;;;;0.20;0.20;;;;;;;11.70;100.00;98983.66;5038973;28;20052;-57
2024/04/05 03:17:50;;;;;;;0.20;0.20;;;;;;;11.60;100.00;98981.69;5030413;28;20064;-57
2024/04/05 03:20:17;;;;;;;0.10;0.10;;;;;;;11.63;100.00;98983.91;5036117;28;20048;-57
2024/04/05 03:22:43;;;;;;;0.20;0.20;;;;;;;11.65;100.00;98979.06;5037606;28;20524;-57
2024/04/05 03:25:11;;;;;;;0.10;0.10;;;;;;;11.65;100.00;98972.88;5039439;28;20037;-57
2024/04/05 03:27:38;;;;;;;0.20;0.20;;;;;;;11.60;100.00;98964.78;5037857;28;20107;-57
2024/04/05 03:30:07;;;;;;;0.17;0.17;;;;;;;11.72;100.00;98967.31;5039516;28;20151;-57
2024/04/05 03:32:33;;;;;;;0.10;0.10;;;;;;;11.82;100.00;98976.25;5035231;28;20039;-58
2024/04/05 03:35:02;;;;;;;0.20;0.20;;;;;;;11.91;100.00;98965.09;5038951;28;20045;-57
2024/04/05 03:37:29;;;;;;;0.10;0.10;;;;;;;11.70;100.00;98970.25;5036057;28;20511;-58
2024/04/05 03:39:56;;;;;;;0.20;0.20;;;;;;;11.75;100.00;98964.91;5026210;28;20051;-58
2024/04/05 03:42:24;;;;;;;0.10;0.10;;;;;;;11.79;100.00;98962.53;5033941;28;20093;-57
2024/04/05 03:44:50;;;;;;;0.20;0.20;;;;;;;11.78;100.00;98966.28;5038710;28;20089;-58
2024/04/05 03:47:17;;;;;;;0.10;0.10;;;;;;;11.79;100.00;98967.91;5039003;28;20130;-57
2024/04/05 03:49:43;;;;;;;0.10;0.10;;;;;;;11.85;100.00;98967.66;5040606;28;20047;-57
2024/04/05 03:52:10;;;;;;;0.10;0.10;;;;;;;11.71;100.00;98966.50;5041948;28;20049;-57
2024/04/05 03:54:36;;;;;;;0.20;0.20;;;;;;;11.75;100.00;98970.28;5042539;28;20041;-58
2024/04/05 03:57:04;;;;;;;0.13;0.13;;;;;;;11.72;100.00;98984.22;5036550;28;20099;-57
2024/04/05 03:59:31;;;;;;;0.20;0.20;;;;;;;11.77;100.00;98976.22;5040292;28;20049;-58
2024/04/05 04:01:58;;;;;;;0.20;0.20;;;;;;;11.67;100.00;98984.19;5028742;28;20373;-57
2024/04/05 04:04:24;;;;;;;0.20;0.20;;;;;;;11.79;100.00;98979.47;5043178;28;20407;-57
2024/04/05 04:06:51;;;;;;;0.20;0.20;;;;;;;11.75;100.00;98989.06;5022444;28;20823;-57
2024/04/05 04:09:18;;;;;;;0.10;0.10;;;;;;;11.92;100.00;98988.19;5041221;28;20044;-58
2024/04/05 04:11:45;;;;;;;0.20;0.20;;;;;;;11.84;100.00;98981.38;5038405;28;20444;-58
2024/04/05 04:14:13;;;;;;;0.20;0.20;;;;;;;11.95;100.00;98998.41;5040731;28;20041;-57
2024/04/05 04:16:42;;;;;;;0.20;0.20;;;;;;;11.98;100.00;98997.88;5038823;28;20049;-57
2024/04/05 04:19:08;;;;;;;0.10;0.10;;;;;;;11.96;100.00;98989.28;5041875;28;20041;-59
2024/04/05 04:21:35;;;;;;;0.20;0.20;;;;;;;11.96;100.00;98986.59;5037125;28;20068;-58
2024/04/05 04:24:01;;;;;;;0.20;0.20;;;;;;;11.94;100.00;98986.06;5038007;28;20123;-57
2024/04/05 04:26:28;;;;;;;0.20;0.20;;;;;;;11.89;100.00;98977.97;5043115;28;20044;-57
2024/04/05 04:28:55;;;;;;;0.20;0.20;;;;;;;11.86;100.00;98968.50;5035415;28;20052;-58
2024/04/05 04:31:23;;;;;;;0.20;0.20;;;;;;;11.92;100.00;98964.81;5038029;28;20044;-57
2024/04/05 04:33:51;;;;;;;0.20;0.20;;;;;;;11.96;100.00;98957.06;5036545;28;20049;-57
2024/04/05 04:36:18;;;;;;;0.17;0.17;;;;;;;11.91;100.00;98951.66;5041143;28;20045;-57
2024/04/05 04:38:45;;;;;;;0.10;0.10;;;;;;;11.84;100.00;98947.28;5041529;28;20131;-57
2024/04/05 04:41:12;;;;;;;0.20;0.20;;;;;;;11.92;100.00;98945.22;5037855;28;20487;-57
2024/04/05 04:43:39;;;;;;;0.20;0.20;;;;;;;11.87;100.00;98944.09;5036753;28;20097;-58
2024/04/05 04:46:06;;;;;;;0.10;0.10;;;;;;;11.89;100.00;98946.53;5042017;28;20121;-57
2024/04/05 04:48:32;;;;;;;0.20;0.20;;;;;;;11.85;100.00;98958.81;5040171;28;20132;-57
2024/04/05 04:51:00;;;;;;;0.20;0.20;;;;;;;11.90;100.00;98956.19;5039467;28;20392;-58
2024/04/05 04:53:26;;;;;;;0.20;0.20;;;;;;;11.82;100.00;98946.72;5039495;28;20530;-58
2024/04/05 04:55:53;;;;;;;0.20;0.20;;;;;;;11.98;100.00;98949.53;5054432;28;20169;-57
2024/04/05 04:58:22;;;;;;;0.20;0.20;;;;;;;11.84;100.00;98944.59;5041261;28;20099;-58
2024/04/05 05:00:49;;;;;;;0.17;0.17;;;;;;;11.85;100.00;98948.88;5040561;28;20488;-57
2024/04/05 05:03:16;;;;;;;0.10;0.10;;;;;;;11.83;100.00;98960.94;5042129;28;20045;-57
2024/04/05 05:05:43;;;;;;;0.17;0.17;;;;;;;11.94;100.00;98953.81;5038602;28;20048;-57
2024/04/05 05:08:11;;;;;;;0.20;0.20;;;;;;;11.97;100.00;98958.66;5028794;28;20781;-57
2024/04/05 05:10:39;;;;;;;0.20;0.20;;;;;;;11.97;100.00;98958.66;5052838;28;20045;-58
2024/04/05 05:13:05;;;;;;;0.20;0.20;;;;;;;11.90;100.00;98952.72;5041416;28;20789;-58
2024/04/05 05:15:32;;;;;;;0.20;0.20;;;;;;;11.96;100.00;98947.13;5041622;28;20045;-58
2024/04/05 05:17:58;;;;;;;0.20;0.20;;;;;;;12.05;100.00;98940.19;5023495;28;20051;-58
2024/04/05 05:20:26;;;;;;;0.20;0.20;;;;;;;11.91;100.00;98933.66;5055782;28;20057;-58
2024/04/05 05:22:52;;;;;;;0.10;0.10;;;;;;;11.93;100.00;98936.06;5036633;28;20447;-57
2024/04/05 05:25:21;;;;;;;0.20;0.20;;;;;;;11.98;100.00;98942.31;5040720;28;20049;-58
2024/04/05 05:27:47;;;;;;;0.20;0.20;;;;;;;11.93;100.00;98950.34;5037509;28;20041;-58
2024/04/05 05:30:15;;;;;;;0.10;0.10;;;;;;;12.07;100.00;98945.31;5040463;28;20179;-58
2024/04/05 05:32:41;;;;;;;0.20;0.20;;;;;;;11.93;100.00;98936.06;5036283;28;20132;-58
2024/04/05 05:35:08;;;;;;;0.10;0.10;;;;;;;11.94;100.00;98937.72;5034199;28;20064;-57
2024/04/05 05:37:34;;;;;;;0.10;0.10;;;;;;;11.78;100.00;98936.75;5038869;28;20431;-58
2024/04/05 05:40:01;;;;;;;0.20;0.20;;;;;;;11.80;100.00;98932.72;5039364;28;20033;-58
2024/04/05 05:42:29;;;;;;;0.10;0.10;;;;;;;11.90;100.00;98941.97;5039488;28;20041;-58
2024/04/05 05:44:56;;;;;;;0.17;0.17;;;;;;;11.88;100.00;98950.25;5033319;28;20041;-57
2024/04/05 05:47:22;;;;;;;0.10;0.10;;;;;;;11.97;100.00;98958.66;5038206;28;20049;-58
2024/04/05 05:49:50;;;;;;;0.20;0.20;;;;;;;12.13;100.00;98963.09;5037840;28;20048;-58
2024/04/05 05:52:16;;;;;;;0.10;0.10;;;;;;;12.30;100.00;98961.03;5040911;28;20049;-58
2024/04/05 05:54:43;;;;;;;0.10;0.10;;;;;;;12.37;100.00;98966.16;5031184;28;20040;-58
2024/04/05 05:57:09;;;;;;;0.30;0.30;;;;;;;12.47;100.00;98951.97;5035628;28;20044;-58
2024/04/05 05:59:38;;;;;;;0.13;0.13;;;;;;;12.36;100.00;98953.00;5035907;28;20048;-58
2024/04/05 06:02:04;;;;;;;0.20;0.20;;;;;;;12.04;100.00;98952.00;5037420;28;20124;-58
2024/04/05 06:04:31;;;;;;;0.20;0.20;;;;;;;12.15;100.00;98960.13;5032732;28;20060;-58
2024/04/05 06:06:57;;;;;;;0.10;0.10;;;;;;;12.43;100.00;98961.63;5042085;28;20069;-58
2024/04/05 06:09:25;;;;;;;0.20;0.20;;;;;;;12.29;100.00;98961.28;5039047;28;20060;-58
2024/04/05 06:11:51;;;;;;;0.10;0.10;;;;;;;12.46;100.00;98955.75;5039476;28;20481;-58
2024/04/05 06:14:18;;;;;;;0.20;0.20;;;;;;;12.52;100.00;98949.31;5035308;28;20218;-58
2024/04/05 06:16:45;;;;;;;0.20;0.20;;;;;;;12.67;100.00;98937.81;5036786;28;20521;-58
2024/04/05 06:19:12;;;;;;;0.20;0.20;;;;;;;12.61;100.00;98937.00;5037089;28;20098;-57
2024/04/05 06:21:38;;;;;;;0.20;0.20;;;;;;;12.79;100.00;98940.28;5038472;28;20056;-58
2024/04/05 06:24:06;;;;;;;0.20;0.20;;;;;;;13.10;100.00;98927.72;5037916;28;20056;-57
2024/04/05 06:26:35;;;;;;;0.17;0.17;;;;;;;12.95;100.00;98926.63;5040062;28;20658;-57
2024/04/05 06:29:02;;;;;;;0.20;0.20;;;;;;;13.19;100.00;98936.09;5035161;28;20044;-57
2024/04/05 06:31:28;;;;;;;0.10;0.10;;;;;;;13.22;100.00;98938.25;5035354;28;20132;-58
2024/04/05 06:33:57;;;;;;;0.15;0.15;;;;;;;13.14;100.00;98950.34;5036839;28;20056;-57
2024/04/05 06:36:23;;;;;;;0.20;0.20;;;;;;;12.95;100.00;98939.25;5038264;28;20143;-58
2024/04/05 06:38:50;;;;;;;0.20;0.20;;;;;;;12.81;100.00;98949.72;5037287;28;20049;-58
2024/04/05 06:41:18;;;;;;;0.10;0.10;;;;;;;12.94;100.00;98959.16;5036173;28;20126;-58
2024/04/05 06:43:45;;;;;;;0.10;0.10;;;;;;;13.03;100.00;98960.28;5036698;28;20094;-58
2024/04/05 06:46:11;;;;;;;0.20;0.20;;;;;;;13.17;100.00;98958.69;5040287;28;20049;-57
2024/04/05 06:48:40;;;;;;;0.20;0.20;;;;;;;13.01;100.00;98945.47;5039185;28;20045;-58
2024/04/05 06:51:11;;;;;;;0.10;0.10;;;;;;;13.17;100.00;98953.28;5031981;28;20045;-58
2024/04/05 06:53:38;;;;;;;0.10;0.10;;;;;;;13.35;100.00;98953.91;5038246;28;20036;-58
2024/04/05 06:56:06;;;;;;;0.10;0.10;;;;;;;13.32;100.00;98935.59;5039950;28;20510;-58
2024/04/05 06:58:33;;;;;;;0.20;0.20;;;;;;;13.20;100.00;98929.63;5033661;28;20045;-58
2024/04/05 07:01:01;;;;;;;0.20;0.20;;;;;;;13.26;100.00;98924.00;5038479;28;20538;-58
2024/04/05 07:03:28;;;;;;;0.10;0.10;;;;;;;13.27;100.00;98922.13;5039164;28;20187;-58
2024/04/05 07:06:00;;;;;;;0.10;0.10;;;;;;;13.12;100.00;98915.63;5037071;28;20135;-58
2024/04/05 07:08:29;;;;;;;0.08;0.08;;;;;;;13.15;100.00;98917.78;5038497;28;20053;-57
2024/04/05 07:10:56;;;;;;;0.10;0.10;;;;;;;13.25;100.00;98921.56;5035109;28;20546;-58
2024/04/05 07:13:23;;;;;;;0.10;0.10;;;;;;;13.27;100.00;98924.81;5037293;28;20045;-57
2024/04/05 07:15:49;;;;;;;0.13;0.13;;;;;;;13.34;100.00;98930.75;5039630;28;20048;-58
2024/04/05 07:18:18;;;;;;;0.10;0.10;;;;;;;13.38;100.00;98908.44;5034689;28;20045;-57
2024/04/05 07:20:44;;;;;;;0.05;0.05;;;;;;;13.39;100.00;98906.53;5038743;28;20068;-58
2024/04/05 07:23:11;;;;;;;0.10;0.10;;;;;;;13.55;100.00;98913.56;5039996;28;20075;-58
2024/04/05 07:25:38;;;;;;;0.17;0.17;;;;;;;13.81;100.00;98908.16;5039430;28;20045;-57
2024/04/05 07:28:06;;;;;;;0.17;0.17;;;;;;;14.03;100.00;98911.34;5043243;28;20041;-58
2024/04/05 07:30:34;;;;;;;0.10;0.10;;;;;;;13.74;100.00;98894.94;5038857;28;20143;-58
2024/04/05 07:33:01;;;;;;;0.20;0.20;;;;;;;13.84;100.00;98902.22;5040505;28;20060;-57
2024/04/05 07:35:27;;;;;;;0.20;0.20;;;;;;;14.98;100.00;98901.56;5038117;28;20045;-57
2024/04/05 07:37:55;;;;;;;0.20;0.20;;;;;;;14.89;100.00;98904.03;5040731;28;20051;-57
2024/04/05 07:40:21;;;;;;;0.10;0.10;;;;;;;15.00;100.00;98903.97;5040240;28;20495;-57
2024/04/05 07:42:51;;;;;;;0.10;0.10;;;;;;;14.77;100.00;98905.44;5038843;28;20045;-58
2024/04/05 07:45:17;;;;;;;0.10;0.10;;;;;;;14.89;100.00;98900.53;5041184;28;20052;-57
2024/04/05 07:47:47;;;;;;;0.20;0.20;;;;;;;14.88;100.00;98890.81;5043014;28;20049;-57
2024/04/05 07:50:13;;;;;;;0.10;0.10;;;;;;;14.66;100.00;98889.31;5038292;28;20787;-57
2024/04/05 07:52:40;;;;;;;0.10;0.10;;;;;;;14.32;100.00;98882.94;5054896;28;20087;-58
2024/04/05 07:55:08;;;;;;;0.10;0.10;;;;;;;14.20;100.00;98877.88;5053020;28;20111;-57
2024/04/05 07:57:36;;;;;;;0.17;0.17;;;;;;;14.55;100.00;98873.44;5036851;28;20056;-57
2024/04/05 08:00:05;;;;;;;0.08;0.08;;;;;;;14.74;100.00;98873.63;5030033;28;20048;-57
2024/04/05 08:02:33;;;;;;;;;;;;;;;14.48;100.00;98871.03;5038882;28;20139;-57
2024/04/05 08:04:59;;;;;;;0.17;0.17;;;;;;;14.74;100.00;98860.94;5032335;28;21542;-58
2024/04/05 08:07:26;;;;;;;0.13;0.13;;;;;;;14.76;100.00;98861.47;5040405;28;20052;-58
2024/04/05 08:09:52;;;;;;;0.10;0.10;;;;;;;14.71;100.00;98864.22;5035657;28;20045;-58
2024/04/05 08:12:19;;;;;;;0.10;0.10;;;;;;;14.69;100.00;98860.97;5042263;28;20045;-57
2024/04/05 08:14:45;;;;;;;0.10;0.10;;;;;;;15.47;100.00;98856.63;5032100;28;20091;-58
2024/04/05 08:17:13;;;;;;;0.10;0.10;;;;;;;15.26;100.00;98854.13;5035112;28;20045;-58
2024/04/05 08:19:40;;;;;;;0.10;0.10;;;;;;;15.34;100.00;98850.00;5039404;28;20069;-58
2024/04/05 08:22:07;;;;;;;0.10;0.10;;;;;;;15.38;100.00;98845.66;5040540;28;20049;-57
2024/04/05 08:24:33;;;;;;;0.10;0.10;;;;;;;15.26;100.00;98837.91;5039567;28;20068;-57
2024/04/05 08:27:00;;;;;;;0.10;0.10;;;;;;;15.66;100.00;98835.13;5036761;28;20853;-57
2024/04/05 08:29:27;;;;;;;0.10;0.10;;;;;;;15.66;100.00;98835.13;5042347;28;20041;-57
2024/04/05 08:31:54;;;;;;;0.10;0.10;;;;;;;16.27;100.00;98831.78;5035593;28;20098;-58
2024/04/05 08:34:22;;;;;;;0.08;0.08;;;;;;;16.02;100.00;98838.28;5041512;28;20048;-57
2024/04/05 08:36:49;;;;;;;0.10;0.10;;;;;;;15.57;100.00;98845.75;5034071;28;21068;-57
2024/04/05 08:39:17;;;;;;;0.10;0.10;;;;;;;16.07;99.96;98843.63;5040624;28;20053;-57
2024/04/05 08:41:45;;;;;;;0.10;0.10;;;;;;;15.66;100.00;98846.75;5035892;28;20630;-57
2024/04/05 08:44:14;;;;;;;0.10;0.10;;;;;;;15.79;100.00;98852.59;5033784;28;20872;-57
2024/04/05 08:46:42;;;;;;;0.10;0.10;;;;;;;15.58;100.00;98857.38;5041535;28;20949;-57
2024/04/05 08:49:10;;;;;;;0.10;0.10;;;;;;;15.71;99.84;98854.84;5039315;28;20114;-57
2024/04/05 08:51:39;;;;;;;0.10;0.10;;;;;;;15.52;100.00;98852.03;5055940;28;20475;-60
2024/04/05 08:54:05;;;;;;;0.10;0.10;;;;;;;15.78;97.55;98848.31;5037520;28;20052;-57
2024/04/05 08:56:32;;;;;;;0.10;0.10;;;;;;;15.89;96.97;98860.59;5041248;28;20854;-57
2024/04/05 08:58:58;;;;;;;0.10;0.10;;;;;;;16.23;93.30;98873.22;5036838;28;20045;-57
2024/04/05 09:01:25;;;;;;;0.10;0.10;;;;;;;16.84;90.18;98858.91;5034392;28;20057;-57
2024/04/05 09:03:52;;;;;;;0.10;0.10;;;;;;;15.93;93.71;98869.75;5039012;28;20808;-57
2024/04/05 09:06:20;;;;;;;0.10;0.10;;;;;;;16.22;92.77;98868.91;5041053;28;20414;-57
2024/04/05 09:08:49;;;;;;;0.20;0.20;;;;;;;16.71;92.61;98875.88;5037031;28;20044;-59
2024/04/05 09:11:23;;;;;;;0.10;0.10;;;;;;;16.45;92.42;98859.16;5034320;28;20053;-57
2024/04/05 09:13:56;;;;;;;0.10;0.10;;;;;;;17.63;85.95;98842.78;5039621;28;20057;-57
2024/04/05 09:16:24;;;;;;;0.10;0.10;;;;;;;17.82;84.09;98836.50;5040541;28;20173;-57
2024/04/05 09:18:51;;;;;;;0.10;0.10;;;;;;;17.08;86.25;98820.16;5038683;28;20076;-57
2024/04/05 09:21:19;;;;;;;0.10;0.10;;;;;;;16.82;85.10;98796.16;5037905;28;20049;-57
2024/04/05 09:23:46;;;;;;;0.10;0.10;;;;;;;17.04;86.63;98784.72;5036843;28;20142;-57
2024/04/05 09:26:18;;;;;;;0.10;0.10;;;;;;;17.26;83.56;98789.50;5033848;28;20041;-57
2024/04/05 09:28:46;;;;;;;0.10;0.10;;;;;;;17.73;83.05;98797.63;5035586;28;20578;-57
2024/04/05 09:31:19;;;;;;;0.10;0.10;;;;;;;17.16;85.05;98782.34;5022775;28;20045;-57
2024/04/05 09:33:45;;;;;;;0.10;0.10;;;;;;;17.49;84.74;98792.38;5036635;28;20044;-58
2024/04/05 09:36:14;;;;;;;0.10;0.10;;;;;;;18.60;77.24;98783.09;5038893;28;20041;-58
2024/04/05 09:38:40;;;;;;;0.10;0.10;;;;;;;18.66;78.74;98794.66;5035876;28;20037;-58
2024/04/05 09:41:08;;;;;;;0.00;0.00;;;;;;;18.69;76.25;98785.88;5036698;28;20037;-58
2024/04/05 09:43:35;;;;;;;0.10;0.10;;;;;;;17.91;77.83;98787.81;5032872;28;20779;-58
2024/04/05 09:46:04;;;;;;;0.00;0.00;;;;;;;18.72;73.89;98793.41;5039790;28;20044;-58
2024/04/05 09:48:32;;;;;;;0.00;0.00;;;;;;;19.49;72.43;98789.66;5040013;28;20048;-58
2024/04/05 09:51:00;;;;;;;0.00;0.00;;;;;;;19.91;71.96;98794.81;5035658;28;20041;-58
2024/04/05 09:53:27;;;;;;;0.10;0.10;;;;;;;19.81;70.84;98801.34;5040290;28;20037;-58
2024/04/05 09:55:55;;;;;;;0.00;0.00;;;;;;;20.27;70.80;98802.78;5035495;28;20054;-57
2024/04/05 09:58:24;;;;;;;0.00;0.00;;;;;;;19.84;72.24;98800.72;5037389;28;20404;-57
2024/04/05 10:01:06;;;;;;;0.00;0.00;;;;;;;18.58;73.12;98809.75;5038747;28;20045;-58
2024/04/05 10:03:44;;;;;;;0.00;0.00;;;;;;;18.56;75.62;98798.38;5054197;27;20438;-59
2024/04/05 10:06:12;;;;;;;0.00;0.00;;;;;;;19.69;75.38;98809.28;5071778;28;20128;-59
2024/04/05 10:08:40;;;;;;;0.00;0.00;;;;;;;19.83;71.35;98804.56;5048772;28;20127;-57
2024/04/05 10:11:13;;;;;;;0.00;0.00;;;;;;;18.79;76.76;98795.72;5055791;28;20756;-59
2024/04/05 10:13:41;;;;;;;0.10;0.10;;;;;;;18.87;76.53;98789.56;5046612;28;20060;-59
2024/04/05 10:16:08;;;;;;;0.10;0.10;;;;;;;18.98;73.44;98793.66;5050111;28;20044;-59
2024/04/05 10:18:37;;;;;;;0.00;0.00;;;;;;;18.97;76.23;98792.06;5057851;28;20056;-59
2024/04/05 10:21:05;;;;;;;0.00;0.00;;;;;;;19.65;74.21;98790.06;5027778;28;20049;-58
2024/04/05 10:23:38;;;;;;;0.00;0.00;;;;;;;19.92;71.62;98793.69;5052210;28;20060;-58
2024/04/05 10:26:07;;;;;;;0.00;0.00;;;;;;;20.17;70.06;98789.47;5055278;28;20068;-58
2024/04/05 10:28:43;;;;;;;0.10;0.10;;;;;;;20.74;65.51;98772.25;5050303;28;20106;-58
2024/04/05 10:31:10;;;;;;;0.00;0.00;;;;;;;20.66;66.57;98779.31;5055026;28;20053;-58
2024/04/05 10:33:43;;;;;;;0.00;0.00;;;;;;;20.55;66.78;98756.25;5052652;28;20601;-58
2024/04/05 10:36:11;;;;;;;0.00;0.00;;;;;;;20.29;67.38;98762.44;5046834;28;20454;-58
2024/04/05 10:38:43;;;;;;;0.00;0.00;;;;;;;19.78;71.34;98766.63;5051403;28;20496;-58
2024/04/05 10:41:11;;;;;;;0.00;0.00;;;;;;;19.46;72.23;98763.09;5054437;28;20053;-58
2024/04/05 10:43:41;;;;;;;0.00;0.00;;;;;;;19.70;70.61;98764.69;5058253;28;20067;-58
2024/04/05 10:46:09;;;;;;;0.00;0.00;;;;;;;19.48;73.61;98758.16;5046045;28;20047;-58
2024/04/05 10:48:36;;;;;;;0.00;0.00;;;;;;;19.49;72.82;98758.94;5056766;28;20048;-58
2024/04/05 10:51:04;;;;;;;0.00;0.00;;;;;;;18.89;69.60;98731.13;5052444;28;20071;-58
2024/04/05 10:53:33;;;;;;;0.00;0.00;;;;;;;18.68;72.77;98714.50;5056075;28;20052;-58
2024/04/05 10:56:01;;;;;;;0.00;0.00;;;;;;;18.91;71.49;98700.97;5046696;28;20052;-58
2024/04/05 10:58:28;;;;;;;0.00;0.00;;;;;;;19.08;70.02;98725.50;5048312;28;20061;-58
2024/04/05 11:00:54;;;;;;;0.00;0.00;;;;;;;18.44;69.14;98749.28;5049133;28;20695;-58
2024/04/05 11:03:21;;;;;;;0.00;0.00;;;;;;;18.83;69.64;98764.16;5052317;28;20097;-58
2024/04/05 11:05:47;;;;;;;0.00;0.00;;;;;;;18.91;68.50;98749.84;5050810;28;20201;-58
2024/04/05 11:08:15;;;;;;;0.00;0.00;;;;;;;18.79;72.03;98752.31;5054589;28;20048;-58
2024/04/05 11:10:43;;;;;;;0.00;0.00;;;;;;;18.19;70.54;98735.16;5056390;28;20472;-57
2024/04/05 11:13:16;;;;;;;0.00;0.00;;;;;;;18.26;69.18;98724.69;5045295;28;20041;-58
2024/04/05 11:15:42;;;;;;;0.00;0.00;;;;;;;18.60;67.71;98731.53;5041756;28;20061;-57
2024/04/05 11:18:09;;;;;;;0.00;0.00;;;;;;;18.92;67.46;98721.56;5039657;28;20049;-59
2024/04/05 11:20:39;;;;;;;0.00;0.00;;;;;;;19.09;67.57;98751.53;5041296;28;20033;-60
2024/04/05 11:23:07;;;;;;;0.00;0.00;;;;;;;19.23;66.49;98766.97;5042139;28;20067;-58
2024/04/05 11:25:34;;;;;;;0.00;0.00;;;;;;;19.56;65.71;98770.19;5043701;28;20040;-58
2024/04/05 11:28:12;;;;;;;0.00;0.00;;;;;;;19.87;65.82;98785.69;5040759;28;20067;-58